Time;durP1;ratioP1;P1;durP2;ratioP2;P2;SDS_P1;SDS_P2;PMS_P1;PMS_P2;Temp;Humidity;BMP_temperature;BMP_pressure;BME280_temperature;BME280_humidity;BME280_pressure;Samples;Min_cycle;Max_cycle;Signal;HPM_P1;HPM_P2
2023/09/04 00:02:32;;;;;;;5.03;3.30;;;;;;;;;;6311083;28;20039;-72
2023/09/04 00:05:34;;;;;;;4.25;2.60;;;;;;;;;;6311319;28;20088;-72
2023/09/04 00:08:36;;;;;;;5.68;3.08;;;;;;;;;;6319737;28;20434;-72
2023/09/04 00:11:38;;;;;;;4.88;2.20;;;;;;;;;;6312485;28;20152;-72
2023/09/04 00:14:40;;;;;;;3.15;1.90;;;;;;;;;;6311181;28;20044;-72
2023/09/04 00:17:42;;;;;;;3.70;1.85;;;;;;;;;;6310853;28;20189;-72
2023/09/04 00:20:45;;;;;;;6.13;2.55;;;;;;;;;;6310503;28;20059;-72
2023/09/04 00:23:48;;;;;;;4.65;2.70;;;;;;;;;;6316730;28;20052;-72
2023/09/04 00:26:50;;;;;;;4.93;2.88;;;;;;;;;;6315646;28;20777;-72
2023/09/04 00:29:53;;;;;;;4.72;2.75;;;;;;;;;;6318927;28;20051;-72
2023/09/04 00:32:55;;;;;;;4.72;2.90;;;;;;;;;;6315375;28;20441;-73
2023/09/04 00:35:58;;;;;;;3.63;2.03;;;;;;;;;;6304057;28;20097;-72
2023/09/04 00:39:00;;;;;;;4.03;2.85;;;;;;;;;;6323628;28;20048;-72
2023/09/04 00:42:03;;;;;;;4.20;2.75;;;;;;;;;;6322357;28;20178;-72
2023/09/04 00:45:07;;;;;;;6.22;2.67;;;;;;;;;;6300026;28;20149;-72
2023/09/04 00:48:10;;;;;;;6.18;2.38;;;;;;;;;;6314793;28;20127;-72
2023/09/04 00:51:13;;;;;;;6.00;2.83;;;;;;;;;;6310575;28;20048;-72
2023/09/04 00:54:16;;;;;;;6.50;2.20;;;;;;;;;;6307458;28;20059;-72
2023/09/04 00:57:18;;;;;;;4.95;3.17;;;;;;;;;;6295910;28;20112;-72
2023/09/04 01:00:22;;;;;;;4.15;2.35;;;;;;;;;;6317004;28;20040;-72
2023/09/04 01:03:25;;;;;;;5.13;2.65;;;;;;;;;;6315992;28;20036;-72
2023/09/04 01:06:27;;;;;;;4.32;3.20;;;;;;;;;;6303333;28;20047;-72
2023/09/04 01:09:29;;;;;;;5.50;3.40;;;;;;;;;;6305917;28;20044;-72
2023/09/04 01:12:54;;;;;;;5.93;3.38;;;;;;;;;;6315317;28;20040;-72
2023/09/04 01:15:56;;;;;;;6.38;4.32;;;;;;;;;;6315336;28;20840;-72
2023/09/04 01:18:59;;;;;;;6.75;3.60;;;;;;;;;;6303202;28;20082;-72
2023/09/04 01:22:02;;;;;;;8.70;3.80;;;;;;;;;;6314352;28;20062;-72
2023/09/04 01:25:04;;;;;;;5.35;3.42;;;;;;;;;;6292185;28;20065;-72
2023/09/04 01:28:18;;;;;;;5.78;4.28;;;;;;;;;;6302053;28;20109;-72
2023/09/04 01:31:24;;;;;;;5.45;4.32;;;;;;;;;;6280315;28;20048;-72
2023/09/04 01:34:33;;;;;;;6.82;4.63;;;;;;;;;;6303793;28;20051;-72
2023/09/04 01:37:36;;;;;;;7.03;3.47;;;;;;;;;;6296809;28;20043;-72
2023/09/04 01:40:38;;;;;;;6.20;4.13;;;;;;;;;;6303030;28;20055;-72
2023/09/04 01:43:40;;;;;;;5.50;4.00;;;;;;;;;;6312433;28;20043;-71
2023/09/04 01:46:43;;;;;;;5.80;3.78;;;;;;;;;;6263028;28;20572;-71
2023/09/04 01:49:45;;;;;;;5.63;4.88;;;;;;;;;;6314432;28;20044;-71
2023/09/04 01:52:47;;;;;;;7.07;4.30;;;;;;;;;;6317138;28;20047;-71
2023/09/04 01:55:49;;;;;;;8.40;4.40;;;;;;;;;;6313823;28;20434;-70
2023/09/04 01:58:51;;;;;;;6.03;4.57;;;;;;;;;;6297228;28;20073;-71
2023/09/04 02:01:53;;;;;;;9.02;4.30;;;;;;;;;;6280826;28;20048;-70
2023/09/04 02:04:55;;;;;;;7.32;4.28;;;;;;;;;;6315195;28;20040;-70
2023/09/04 02:07:57;;;;;;;5.82;4.18;;;;;;;;;;6278608;28;20120;-71
2023/09/04 02:10:59;;;;;;;5.47;4.03;;;;;;;;;;6301365;28;20044;-71
2023/09/04 02:14:02;;;;;;;8.02;4.13;;;;;;;;;;6304566;28;20036;-71
2023/09/04 02:17:05;;;;;;;6.85;4.35;;;;;;;;;;6298282;28;20051;-71
2023/09/04 02:20:08;;;;;;;5.38;4.05;;;;;;;;;;6321487;28;20517;-71
2023/09/04 02:23:14;;;;;;;5.68;4.63;;;;;;;;;;6313766;28;20378;-71
2023/09/04 02:26:16;;;;;;;6.05;4.03;;;;;;;;;;6313671;28;20052;-71
2023/09/04 02:29:18;;;;;;;5.35;3.95;;;;;;;;;;6313313;28;20165;-71
2023/09/04 02:32:21;;;;;;;6.95;3.85;;;;;;;;;;6286774;28;20091;-71
2023/09/04 02:35:23;;;;;;;5.55;4.18;;;;;;;;;;6313192;28;20434;-71
2023/09/04 02:38:26;;;;;;;6.13;3.63;;;;;;;;;;6314648;28;20051;-71
2023/09/04 02:41:30;;;;;;;5.00;3.63;;;;;;;;;;6299727;28;20048;-71
2023/09/04 02:44:32;;;;;;;5.65;4.15;;;;;;;;;;6301236;28;20055;-71
2023/09/04 02:47:37;;;;;;;5.65;3.75;;;;;;;;;;6312271;28;20048;-71
2023/09/04 02:50:40;;;;;;;7.07;3.90;;;;;;;;;;6279641;28;20470;-71
2023/09/04 02:53:42;;;;;;;6.95;4.72;;;;;;;;;;6298175;28;20040;-72
2023/09/04 02:56:44;;;;;;;5.68;3.30;;;;;;;;;;6312384;28;20032;-71
2023/09/04 02:59:46;;;;;;;5.80;4.32;;;;;;;;;;6318737;28;20775;-71
2023/09/04 03:02:50;;;;;;;5.32;4.18;;;;;;;;;;6314511;28;20051;-71
2023/09/04 03:05:52;;;;;;;5.07;3.92;;;;;;;;;;6319248;28;20052;-71
2023/09/04 03:08:54;;;;;;;5.15;3.88;;;;;;;;;;6298400;28;20040;-71
2023/09/04 03:11:58;;;;;;;5.50;4.15;;;;;;;;;;6304155;28;20683;-71
2023/09/04 03:15:05;;;;;;;6.60;3.53;;;;;;;;;;6283111;28;20123;-71
2023/09/04 03:18:09;;;;;;;5.00;3.63;;;;;;;;;;6316374;28;20051;-71
2023/09/04 03:21:13;;;;;;;7.93;3.45;;;;;;;;;;6300669;28;20048;-71
2023/09/04 03:24:17;;;;;;;6.25;5.38;;;;;;;;;;6320275;28;20051;-71
2023/09/04 03:27:20;;;;;;;5.88;4.20;;;;;;;;;;6311533;28;20074;-71
2023/09/04 03:30:22;;;;;;;5.97;3.53;;;;;;;;;;6312142;28;20122;-71
2023/09/04 03:33:24;;;;;;;5.55;4.00;;;;;;;;;;6319265;28;20048;-71
2023/09/04 03:36:26;;;;;;;5.78;4.20;;;;;;;;;;6298730;28;20117;-71
2023/09/04 03:39:33;;;;;;;6.05;3.88;;;;;;;;;;6294982;28;20534;-71
2023/09/04 03:42:35;;;;;;;6.68;4.90;;;;;;;;;;6295179;28;20043;-71
2023/09/04 03:45:37;;;;;;;9.65;4.75;;;;;;;;;;6298199;28;20082;-71
2023/09/04 03:48:40;;;;;;;8.48;4.63;;;;;;;;;;6312477;28;20052;-71
2023/09/04 03:51:42;;;;;;;8.77;5.88;;;;;;;;;;6294756;28;20587;-72
2023/09/04 03:54:44;;;;;;;7.63;4.75;;;;;;;;;;6310846;28;20181;-71
2023/09/04 03:57:48;;;;;;;6.57;4.85;;;;;;;;;;6295134;28;20044;-71
2023/09/04 04:00:57;;;;;;;6.53;5.70;;;;;;;;;;6311937;28;20090;-72
2023/09/04 04:04:02;;;;;;;11.57;6.45;;;;;;;;;;6320480;28;20659;-71
2023/09/04 04:07:04;;;;;;;8.30;6.93;;;;;;;;;;6303862;28;20062;-71
2023/09/04 04:10:07;;;;;;;6.93;5.45;;;;;;;;;;6309426;28;20052;-71
2023/09/04 04:13:09;;;;;;;7.57;5.90;;;;;;;;;;6314724;28;20044;-77
2023/09/04 04:16:18;;;;;;;8.57;4.93;;;;;;;;;;6289152;28;20046;-79
2023/09/04 04:19:21;;;;;;;10.73;6.55;;;;;;;;;;6343577;28;20091;-73
2023/09/04 04:22:24;;;;;;;8.93;6.35;;;;;;;;;;6319989;28;20044;-77
2023/09/04 04:25:26;;;;;;;11.48;8.10;;;;;;;;;;6306876;28;20856;-71
2023/09/04 04:28:28;;;;;;;8.45;7.55;;;;;;;;;;6300685;28;20044;-72
2023/09/04 04:31:32;;;;;;;7.88;5.88;;;;;;;;;;6293595;28;20044;-71
2023/09/04 04:34:34;;;;;;;8.95;5.78;;;;;;;;;;6308816;28;20074;-64
2023/09/04 04:37:36;;;;;;;11.15;6.70;;;;;;;;;;6308648;28;20559;-68
2023/09/04 04:40:41;;;;;;;9.35;6.63;;;;;;;;;;6294333;28;20051;-67
2023/09/04 04:43:43;;;;;;;8.10;6.10;;;;;;;;;;6308954;28;20050;-67
2023/09/04 04:46:47;;;;;;;8.20;5.70;;;;;;;;;;6290787;28;20089;-66
2023/09/04 04:49:50;;;;;;;10.48;6.75;;;;;;;;;;6307786;28;20290;-65
2023/09/04 04:52:52;;;;;;;8.45;5.57;;;;;;;;;;6308962;28;20135;-65
2023/09/04 04:55:54;;;;;;;9.65;6.43;;;;;;;;;;6302777;28;20082;-65
2023/09/04 04:58:56;;;;;;;6.75;5.95;;;;;;;;;;6295156;28;20236;-65
2023/09/04 05:02:00;;;;;;;8.20;5.63;;;;;;;;;;6293163;28;20056;-65
2023/09/04 05:05:03;;;;;;;9.00;5.97;;;;;;;;;;6290269;28;20522;-66
2023/09/04 05:08:07;;;;;;;7.90;5.90;;;;;;;;;;6292786;28;20051;-66
2023/09/04 05:11:09;;;;;;;9.65;6.18;;;;;;;;;;6293810;28;20040;-65
2023/09/04 05:14:13;;;;;;;10.98;6.47;;;;;;;;;;6292187;28;20039;-65
2023/09/04 05:17:15;;;;;;;10.07;4.90;;;;;;;;;;6296703;28;20039;-75
2023/09/04 05:20:21;;;;;;;7.57;5.53;;;;;;;;;;6310088;28;20473;-76
2023/09/04 05:23:23;;;;;;;6.97;5.95;;;;;;;;;;6315345;28;20043;-76
2023/09/04 05:26:25;;;;;;;8.90;5.72;;;;;;;;;;6307605;28;20165;-76
2023/09/04 05:29:27;;;;;;;10.68;6.30;;;;;;;;;;6299140;28;20059;-76
2023/09/04 05:32:30;;;;;;;7.22;5.30;;;;;;;;;;6333925;27;20052;-76
2023/09/04 05:35:34;;;;;;;7.07;5.53;;;;;;;;;;6290928;28;20568;-76
2023/09/04 05:38:36;;;;;;;5.90;4.45;;;;;;;;;;6280221;28;20041;-76
2023/09/04 05:41:38;;;;;;;7.65;4.97;;;;;;;;;;6298196;28;20666;-76
2023/09/04 05:44:43;;;;;;;5.93;4.25;;;;;;;;;;6297173;28;20059;-76
2023/09/04 05:47:45;;;;;;;7.57;5.78;;;;;;;;;;6302711;28;20587;-75
2023/09/04 05:50:48;;;;;;;7.63;5.68;;;;;;;;;;6297742;28;20073;-76
2023/09/04 05:53:51;;;;;;;6.18;4.30;;;;;;;;;;6300117;28;20048;-76
2023/09/04 05:56:53;;;;;;;6.63;5.18;;;;;;;;;;6297171;28;20048;-77
2023/09/04 05:59:55;;;;;;;8.50;5.55;;;;;;;;;;6315980;28;20039;-76
2023/09/04 06:02:59;;;;;;;10.07;4.85;;;;;;;;;;6311283;28;20032;-75
2023/09/04 06:06:02;;;;;;;5.68;4.50;;;;;;;;;;6296279;28;20071;-76
2023/09/04 06:09:06;;;;;;;6.88;4.90;;;;;;;;;;6316094;28;20039;-76
2023/09/04 06:12:11;;;;;;;8.40;5.03;;;;;;;;;;6325560;28;20068;-76
2023/09/04 06:15:13;;;;;;;7.43;3.58;;;;;;;;;;6302870;28;20048;-75
2023/09/04 06:18:15;;;;;;;10.18;6.72;;;;;;;;;;6314187;28;20470;-71
2023/09/04 06:21:17;;;;;;;5.07;3.55;;;;;;;;;;6327408;27;20048;-71
2023/09/04 06:24:19;;;;;;;17.25;11.48;;;;;;;;;;6317583;28;20043;-71
2023/09/04 06:27:24;;;;;;;7.88;6.15;;;;;;;;;;6314536;28;20051;-78
2023/09/04 06:30:26;;;;;;;5.90;4.18;;;;;;;;;;6323995;28;20132;-69
2023/09/04 06:33:33;;;;;;;6.95;5.35;;;;;;;;;;6316743;28;20044;-68
2023/09/04 06:36:35;;;;;;;7.45;5.72;;;;;;;;;;6298182;28;20048;-67
2023/09/04 06:39:38;;;;;;;7.68;4.75;;;;;;;;;;6309683;28;20063;-67
2023/09/04 06:42:41;;;;;;;5.28;3.65;;;;;;;;;;6311392;28;20189;-70
2023/09/04 06:45:44;;;;;;;6.13;4.95;;;;;;;;;;6307354;28;20050;-70
2023/09/04 06:48:47;;;;;;;7.45;3.85;;;;;;;;;;6304652;28;20431;-63
2023/09/04 06:51:49;;;;;;;6.25;4.88;;;;;;;;;;6313102;28;20046;-65
2023/09/04 06:54:52;;;;;;;5.85;4.22;;;;;;;;;;6313086;28;20096;-65
2023/09/04 06:57:54;;;;;;;7.50;3.35;;;;;;;;;;6325219;28;20048;-66
2023/09/04 07:00:56;;;;;;;6.43;4.10;;;;;;;;;;6315106;28;20059;-62
2023/09/04 07:03:58;;;;;;;6.60;5.45;;;;;;;;;;6312785;28;20046;-63
2023/09/04 07:07:00;;;;;;;5.55;3.85;;;;;;;;;;6320019;28;20040;-63
2023/09/04 07:10:04;;;;;;;7.55;5.13;;;;;;;;;;6314326;28;20040;-63
2023/09/04 07:13:06;;;;;;;6.90;4.97;;;;;;;;;;6310324;28;20090;-63
2023/09/04 07:16:08;;;;;;;5.75;3.95;;;;;;;;;;6310760;28;20044;-63
2023/09/04 07:19:23;;;;;;;5.88;4.20;;;;;;;;;;6315968;28;20051;-63
2023/09/04 07:22:25;;;;;;;6.60;3.92;;;;;;;;;;6312382;28;20052;-63
2023/09/04 07:25:28;;;;;;;5.90;4.38;;;;;;;;;;6312380;28;20067;-63
2023/09/04 07:28:31;;;;;;;6.15;4.20;;;;;;;;;;6320255;28;20036;-63
2023/09/04 07:31:33;;;;;;;5.72;4.00;;;;;;;;;;6316689;28;20074;-64
2023/09/04 07:34:36;;;;;;;6.18;3.72;;;;;;;;;;6318024;28;20040;-63
2023/09/04 07:37:38;;;;;;;8.77;3.60;;;;;;;;;;6313279;28;20640;-65
2023/09/04 07:40:41;;;;;;;6.95;4.25;;;;;;;;;;6312271;28;20874;-66
2023/09/04 07:43:43;;;;;;;13.32;8.25;;;;;;;;;;6324629;28;20035;-63
2023/09/04 07:46:45;;;;;;;8.00;6.93;;;;;;;;;;6313112;28;20079;-63
2023/09/04 07:49:53;;;;;;;6.70;4.07;;;;;;;;;;6312897;28;20104;-63
2023/09/04 07:52:56;;;;;;;5.57;3.63;;;;;;;;;;6318872;28;20051;-63
2023/09/04 07:55:58;;;;;;;6.72;4.35;;;;;;;;;;6312847;28;20047;-63
2023/09/04 07:59:00;;;;;;;6.22;4.97;;;;;;;;;;6311690;28;20040;-63
2023/09/04 08:02:03;;;;;;;6.68;5.70;;;;;;;;;;6316455;28;20139;-63
2023/09/04 08:05:05;;;;;;;6.95;5.10;;;;;;;;;;6317021;28;20044;-64
2023/09/04 08:08:10;;;;;;;6.30;4.07;;;;;;;;;;6310936;28;20040;-63
2023/09/04 08:11:12;;;;;;;5.18;3.95;;;;;;;;;;6315774;28;20055;-63
2023/09/04 08:14:14;;;;;;;6.75;4.90;;;;;;;;;;6307253;28;20052;-63
2023/09/04 08:17:16;;;;;;;6.43;4.95;;;;;;;;;;6310843;28;20048;-65
2023/09/04 08:20:18;;;;;;;6.25;4.30;;;;;;;;;;6310937;28;20496;-63
2023/09/04 08:23:20;;;;;;;7.22;4.95;;;;;;;;;;6325159;28;20059;-63
2023/09/04 08:26:23;;;;;;;6.13;5.10;;;;;;;;;;6313024;28;20051;-64
2023/09/04 08:29:25;;;;;;;7.38;5.80;;;;;;;;;;6322518;28;20044;-63
2023/09/04 08:32:27;;;;;;;7.10;5.18;;;;;;;;;;6293559;28;20956;-63
2023/09/04 08:35:30;;;;;;;6.43;5.47;;;;;;;;;;6311166;28;20717;-64
2023/09/04 08:38:32;;;;;;;5.93;5.10;;;;;;;;;;6318091;28;20727;-64
2023/09/04 08:41:35;;;;;;;11.30;6.35;;;;;;;;;;6318847;28;20044;-64
2023/09/04 08:44:38;;;;;;;5.72;4.38;;;;;;;;;;6317263;28;20056;-63
2023/09/04 08:47:41;;;;;;;5.55;4.18;;;;;;;;;;6304918;28;20055;-64
2023/09/04 09:01:44;;;;;;;5.32;3.60;;;;;;;;;;6357309;27;20706;-63
2023/09/04 09:04:46;;;;;;;5.40;3.83;;;;;;;;;;6312060;28;20056;-66
2023/09/04 09:07:49;;;;;;;6.13;4.75;;;;;;;;;;6336769;28;20056;-66
2023/09/04 09:10:52;;;;;;;6.43;4.43;;;;;;;;;;6331241;28;20437;-65
2023/09/04 09:13:54;;;;;;;6.45;4.55;;;;;;;;;;6332479;28;20052;-65
2023/09/04 09:17:03;;;;;;;5.70;4.07;;;;;;;;;;6331342;28;20043;-65
2023/09/04 09:20:09;;;;;;;6.28;4.38;;;;;;;;;;6332191;28;20039;-65
2023/09/04 09:23:14;;;;;;;6.07;4.63;;;;;;;;;;6333045;28;20044;-65
2023/09/04 09:26:16;;;;;;;5.30;3.97;;;;;;;;;;6333948;28;20044;-63
2023/09/04 09:29:19;;;;;;;6.55;4.90;;;;;;;;;;6331605;28;20100;-65
2023/09/04 09:32:21;;;;;;;6.65;4.45;;;;;;;;;;6336850;28;20043;-65
2023/09/04 09:35:23;;;;;;;5.63;3.47;;;;;;;;;;6333357;27;20154;-65
2023/09/04 09:38:26;;;;;;;5.85;4.00;;;;;;;;;;6332748;28;20047;-66
2023/09/04 09:41:33;;;;;;;5.90;3.65;;;;;;;;;;6332050;28;20128;-67
2023/09/04 09:44:35;;;;;;;5.28;3.78;;;;;;;;;;6322740;28;20052;-66
2023/09/04 09:47:40;;;;;;;7.10;4.65;;;;;;;;;;6336378;28;20048;-67
2023/09/04 09:50:42;;;;;;;6.55;5.70;;;;;;;;;;6329513;28;20035;-67
2023/09/04 09:53:52;;;;;;;6.93;4.75;;;;;;;;;;6331830;28;20051;-65
2023/09/04 09:56:54;;;;;;;7.53;4.63;;;;;;;;;;6332114;28;20055;-65
2023/09/04 10:00:00;;;;;;;4.95;3.83;;;;;;;;;;6333512;28;20036;-66
2023/09/04 10:03:02;;;;;;;7.63;5.30;;;;;;;;;;6314783;28;20036;-67
2023/09/04 10:06:06;;;;;;;6.30;4.45;;;;;;;;;;6322855;28;20048;-67
2023/09/04 10:09:09;;;;;;;6.75;4.57;;;;;;;;;;6328827;28;20044;-66
2023/09/04 10:12:19;;;;;;;6.70;4.78;;;;;;;;;;6312102;28;20051;-67
2023/09/04 10:15:27;;;;;;;6.07;4.22;;;;;;;;;;6309084;28;20434;-67
2023/09/04 10:18:30;;;;;;;8.93;5.68;;;;;;;;;;6311719;28;20082;-67
2023/09/04 10:21:33;;;;;;;7.30;5.80;;;;;;;;;;6307878;28;20534;-65
2023/09/04 10:24:53;;;;;;;11.27;5.68;;;;;;;;;;6312397;28;20056;-65
2023/09/04 10:28:04;;;;;;;8.30;4.85;;;;;;;;;;6312933;28;20044;-64
2023/09/04 10:31:06;;;;;;;8.00;5.65;;;;;;;;;;6314263;28;20050;-65
2023/09/04 10:34:11;;;;;;;8.98;6.32;;;;;;;;;;6327594;28;20036;-64
2023/09/04 10:37:13;;;;;;;5.93;5.25;;;;;;;;;;6317906;28;20044;-65
2023/09/04 10:40:17;;;;;;;7.25;4.72;;;;;;;;;;6316752;28;20043;-66
2023/09/04 10:43:19;;;;;;;6.85;4.45;;;;;;;;;;6307164;28;20052;-65
2023/09/04 10:46:22;;;;;;;6.75;4.78;;;;;;;;;;6308278;28;20051;-65
2023/09/04 10:49:31;;;;;;;12.57;5.30;;;;;;;;;;6313053;28;20047;-66
2023/09/04 10:52:43;;;;;;;6.88;5.32;;;;;;;;;;6310984;28;20058;-65
2023/09/04 10:56:11;;;;;;;6.45;4.80;;;;;;;;;;6306894;28;20049;-65
2023/09/04 10:59:13;;;;;;;8.93;5.07;;;;;;;;;;6308743;28;20130;-66
2023/09/04 11:02:35;;;;;;;6.20;5.03;;;;;;;;;;6311916;28;20040;-65
2023/09/04 11:06:05;;;;;;;5.35;3.90;;;;;;;;;;6312205;28;20047;-65
2023/09/04 11:09:14;;;;;;;5.97;4.72;;;;;;;;;;6318809;28;20120;-65
2023/09/04 11:12:23;;;;;;;6.32;4.95;;;;;;;;;;6302341;28;20048;-66
2023/09/04 11:15:26;;;;;;;5.07;4.40;;;;;;;;;;6309191;28;20071;-65
2023/09/04 11:18:29;;;;;;;6.82;4.30;;;;;;;;;;6308194;28;20542;-64
2023/09/04 11:21:32;;;;;;;6.72;5.22;;;;;;;;;;6315039;28;20124;-65
2023/09/04 11:24:34;;;;;;;5.00;4.38;;;;;;;;;;6309729;28;20039;-66
2023/09/04 11:27:36;;;;;;;5.38;4.32;;;;;;;;;;6307912;28;20052;-65
2023/09/04 11:30:39;;;;;;;5.88;5.28;;;;;;;;;;6313783;28;20446;-65
2023/09/04 11:33:41;;;;;;;7.03;4.07;;;;;;;;;;6309708;28;20194;-65
2023/09/04 11:36:46;;;;;;;5.65;4.50;;;;;;;;;;6309244;28;20142;-65
2023/09/04 11:39:52;;;;;;;5.40;4.10;;;;;;;;;;6310098;28;20066;-65
2023/09/04 11:42:59;;;;;;;5.97;4.32;;;;;;;;;;6311608;28;20047;-65
2023/09/04 11:46:01;;;;;;;5.38;4.43;;;;;;;;;;6308315;28;20044;-65
2023/09/04 11:49:04;;;;;;;5.32;4.15;;;;;;;;;;6309200;28;20040;-65
2023/09/04 11:52:07;;;;;;;6.13;4.28;;;;;;;;;;6310483;28;20040;-65
2023/09/04 11:55:11;;;;;;;7.07;4.90;;;;;;;;;;6310336;28;20063;-64
2023/09/04 11:58:14;;;;;;;7.20;5.75;;;;;;;;;;6310722;28;20055;-64
2023/09/04 12:01:16;;;;;;;7.10;4.78;;;;;;;;;;6310772;28;20117;-72
2023/09/04 12:04:18;;;;;;;7.18;5.60;;;;;;;;;;6309913;28;20047;-75
2023/09/04 12:07:21;;;;;;;6.40;4.70;;;;;;;;;;6285333;28;20810;-71
2023/09/04 12:10:23;;;;;;;7.03;4.75;;;;;;;;;;6303296;28;20032;-71
2023/09/04 12:13:25;;;;;;;6.32;5.18;;;;;;;;;;6310494;28;20474;-71
2023/09/04 12:16:28;;;;;;;5.28;3.67;;;;;;;;;;6312734;28;20040;-71
2023/09/04 12:19:30;;;;;;;6.70;5.90;;;;;;;;;;6313588;28;20039;-72
2023/09/04 12:22:33;;;;;;;9.13;5.45;;;;;;;;;;6311927;28;20044;-71
2023/09/04 12:25:41;;;;;;;7.55;5.80;;;;;;;;;;6310598;28;20807;-73
2023/09/04 12:28:43;;;;;;;7.35;5.68;;;;;;;;;;6311581;28;20816;-72
2023/09/04 12:31:48;;;;;;;8.63;6.30;;;;;;;;;;6310888;28;20044;-71
2023/09/04 12:35:00;;;;;;;7.28;5.63;;;;;;;;;;6310774;28;20078;-72
2023/09/04 12:38:03;;;;;;;6.68;3.97;;;;;;;;;;6311446;28;20052;-72
2023/09/04 12:41:06;;;;;;;7.80;5.60;;;;;;;;;;6294400;28;20040;-72
2023/09/04 12:44:08;;;;;;;7.60;4.93;;;;;;;;;;6313074;28;20032;-72
2023/09/04 12:47:10;;;;;;;11.50;5.30;;;;;;;;;;6312809;28;20051;-72
2023/09/04 12:50:13;;;;;;;5.55;4.40;;;;;;;;;;6314585;28;20185;-72
2023/09/04 12:53:16;;;;;;;8.00;4.95;;;;;;;;;;6314562;28;20513;-72
2023/09/04 12:56:19;;;;;;;6.88;5.40;;;;;;;;;;6314072;28;20140;-72
2023/09/04 12:59:21;;;;;;;9.35;6.15;;;;;;;;;;6297678;28;20071;-72
2023/09/04 13:02:25;;;;;;;8.13;6.18;;;;;;;;;;6314086;28;20411;-72
2023/09/04 13:05:27;;;;;;;9.50;6.65;;;;;;;;;;6314458;28;20134;-72
2023/09/04 13:08:30;;;;;;;7.30;5.38;;;;;;;;;;6317167;28;20052;-72
2023/09/04 13:11:32;;;;;;;7.90;5.85;;;;;;;;;;6318412;28;20044;-72
2023/09/04 13:14:35;;;;;;;8.75;6.78;;;;;;;;;;6318270;28;20062;-71
2023/09/04 13:17:41;;;;;;;21.77;14.63;;;;;;;;;;6317297;28;20051;-73
2023/09/04 13:20:43;;;;;;;21.08;11.95;;;;;;;;;;6316019;28;20077;-73
2023/09/04 13:23:46;;;;;;;7.40;5.18;;;;;;;;;;6316686;28;20395;-72
2023/09/04 13:26:50;;;;;;;11.20;5.90;;;;;;;;;;6316592;28;20044;-70
2023/09/04 13:29:53;;;;;;;7.75;5.25;;;;;;;;;;6315338;28;20127;-70
2023/09/04 13:32:56;;;;;;;8.02;6.35;;;;;;;;;;6315093;28;20044;-71
2023/09/04 13:35:58;;;;;;;8.77;5.72;;;;;;;;;;6314601;28;20044;-69
2023/09/04 13:39:00;;;;;;;10.18;7.18;;;;;;;;;;6318886;28;20113;-71
2023/09/04 13:42:02;;;;;;;7.93;6.28;;;;;;;;;;6318209;28;20454;-69
2023/09/04 13:45:05;;;;;;;7.03;5.32;;;;;;;;;;6319389;28;20418;-71
2023/09/04 13:48:07;;;;;;;7.07;5.18;;;;;;;;;;6319948;28;20044;-70
2023/09/04 13:51:10;;;;;;;8.10;5.78;;;;;;;;;;6319137;28;20094;-70
2023/09/04 13:54:13;;;;;;;12.40;6.38;;;;;;;;;;6318818;28;20055;-70
2023/09/04 13:57:33;;;;;;;6.97;4.10;;;;;;;;;;6317461;28;20546;-69
2023/09/04 14:00:41;;;;;;;6.43;5.10;;;;;;;;;;6323188;28;20050;-76
2023/09/04 14:03:45;;;;;;;6.40;4.45;;;;;;;;;;6315573;28;20063;-70
2023/09/04 14:06:48;;;;;;;5.93;3.75;;;;;;;;;;6310989;28;20134;-72
2023/09/04 14:09:52;;;;;;;5.63;3.58;;;;;;;;;;6309955;28;20067;-70
2023/09/04 14:12:54;;;;;;;5.07;3.13;;;;;;;;;;6311702;28;20052;-68
2023/09/04 14:15:56;;;;;;;6.75;3.53;;;;;;;;;;6314908;28;20120;-68
2023/09/04 14:18:58;;;;;;;6.45;3.35;;;;;;;;;;6308525;28;20573;-74
2023/09/04 14:22:06;;;;;;;5.50;3.65;;;;;;;;;;6298965;28;20059;-72
2023/09/04 14:25:10;;;;;;;5.25;3.90;;;;;;;;;;6315227;28;20048;-71
2023/09/04 14:28:14;;;;;;;6.50;4.15;;;;;;;;;;6316933;28;20109;-73
2023/09/04 14:31:17;;;;;;;7.80;4.30;;;;;;;;;;6311828;28;20039;-64
2023/09/04 14:34:20;;;;;;;9.40;6.22;;;;;;;;;;6312530;28;20088;-64
2023/09/04 14:37:22;;;;;;;9.20;6.80;;;;;;;;;;6310234;28;20605;-69
2023/09/04 14:40:30;;;;;;;9.52;5.90;;;;;;;;;;6317712;28;20126;-68
2023/09/04 14:43:32;;;;;;;9.68;6.03;;;;;;;;;;6312438;28;20048;-67
2023/09/04 14:46:34;;;;;;;7.03;4.75;;;;;;;;;;6323476;28;20055;-74
2023/09/04 14:49:40;;;;;;;5.78;3.92;;;;;;;;;;6316522;28;20036;-70
2023/09/04 14:52:47;;;;;;;6.75;4.22;;;;;;;;;;6315812;28;20059;-70
2023/09/04 14:55:49;;;;;;;6.63;3.78;;;;;;;;;;6315692;28;20051;-66
2023/09/04 14:58:52;;;;;;;5.55;3.35;;;;;;;;;;6314686;28;20128;-67
2023/09/04 15:01:54;;;;;;;6.05;4.10;;;;;;;;;;6309681;28;20561;-66
2023/09/04 15:04:56;;;;;;;5.65;2.75;;;;;;;;;;6312575;28;20048;-68
2023/09/04 15:07:58;;;;;;;5.00;3.05;;;;;;;;;;6309283;28;20077;-69
2023/09/04 15:11:02;;;;;;;5.97;3.50;;;;;;;;;;6312064;28;20068;-69
2023/09/04 15:14:05;;;;;;;5.35;3.17;;;;;;;;;;6314786;28;20056;-75
2023/09/04 15:17:08;;;;;;;6.68;3.13;;;;;;;;;;6296072;28;20051;-75
2023/09/04 15:20:11;;;;;;;7.25;5.30;;;;;;;;;;6312772;28;20152;-76
2023/09/04 15:23:13;;;;;;;6.53;3.42;;;;;;;;;;6328128;28;20181;-75
2023/09/04 15:26:17;;;;;;;6.53;3.90;;;;;;;;;;6311799;28;20055;-75
2023/09/04 15:29:20;;;;;;;8.73;4.70;;;;;;;;;;6296053;28;20085;-69
2023/09/04 15:32:23;;;;;;;6.90;3.67;;;;;;;;;;6312217;28;20079;-69
2023/09/04 15:35:25;;;;;;;6.63;4.07;;;;;;;;;;6311477;28;20066;-70
2023/09/04 15:38:28;;;;;;;6.00;4.75;;;;;;;;;;6312086;28;20147;-70
2023/09/04 15:41:30;;;;;;;9.18;5.53;;;;;;;;;;6312206;28;20530;-70
2023/09/04 15:44:34;;;;;;;10.55;7.40;;;;;;;;;;6311716;28;20058;-67
2023/09/04 15:47:40;;;;;;;9.43;5.15;;;;;;;;;;6311618;28;20048;-73
2023/09/04 15:50:43;;;;;;;6.05;4.28;;;;;;;;;;6304228;28;20482;-72
2023/09/04 15:53:45;;;;;;;6.07;3.97;;;;;;;;;;6309186;28;20048;-73
2023/09/04 15:56:49;;;;;;;6.05;3.92;;;;;;;;;;6311563;28;20055;-71
2023/09/04 15:59:51;;;;;;;6.10;3.88;;;;;;;;;;6310452;28;20046;-71
2023/09/04 16:02:54;;;;;;;6.80;4.93;;;;;;;;;;6310233;28;20063;-70
2023/09/04 16:05:56;;;;;;;7.97;4.85;;;;;;;;;;6309124;28;20118;-71
2023/09/04 16:08:58;;;;;;;7.93;4.80;;;;;;;;;;6309523;28;20612;-69
2023/09/04 16:12:00;;;;;;;7.47;5.53;;;;;;;;;;6311822;28;20044;-68
2023/09/04 16:15:04;;;;;;;7.13;4.75;;;;;;;;;;6307566;28;20067;-70
2023/09/04 16:18:08;;;;;;;8.40;5.93;;;;;;;;;;6310258;28;20124;-72
2023/09/04 16:21:11;;;;;;;7.93;4.85;;;;;;;;;;6309670;28;20040;-71
2023/09/04 16:24:13;;;;;;;7.55;4.97;;;;;;;;;;6307884;28;20048;-71
2023/09/04 16:45:35;;;;;;;10.48;8.32;;;;;;;;;;6297962;27;20810;-69
2023/09/04 16:48:37;;;;;;;9.13;5.80;;;;;;;;;;6296485;28;20044;-69
2023/09/04 16:51:40;;;;;;;10.77;6.68;;;;;;;;;;6302498;28;20059;-70
2023/09/04 16:54:57;;;;;;;14.77;7.45;;;;;;;;;;6298045;28;20048;-71
2023/09/04 16:57:59;;;;;;;10.98;6.30;;;;;;;;;;6300541;28;20048;-69
2023/09/04 17:01:02;;;;;;;10.18;7.80;;;;;;;;;;6295553;28;20040;-69
2023/09/04 17:04:07;;;;;;;10.35;7.70;;;;;;;;;;6294532;28;20592;-69
2023/09/04 17:07:09;;;;;;;10.23;6.38;;;;;;;;;;6296355;28;20052;-68
2023/09/04 17:10:12;;;;;;;10.68;7.93;;;;;;;;;;6302049;28;20526;-68
2023/09/04 17:13:14;;;;;;;9.63;6.93;;;;;;;;;;6299620;28;20041;-69
2023/09/04 17:16:16;;;;;;;12.85;7.30;;;;;;;;;;6298467;28;20040;-69
2023/09/04 17:19:19;;;;;;;8.85;6.00;;;;;;;;;;6295085;28;20041;-70
2023/09/04 17:22:22;;;;;;;11.10;7.55;;;;;;;;;;6303044;28;20051;-69
2023/09/04 17:25:24;;;;;;;11.77;7.35;;;;;;;;;;6303318;28;20036;-70
2023/09/04 17:28:27;;;;;;;10.35;7.85;;;;;;;;;;6305551;28;20036;-70
2023/09/04 17:31:29;;;;;;;12.15;6.75;;;;;;;;;;6300771;28;20145;-69
2023/09/04 17:34:31;;;;;;;9.95;6.35;;;;;;;;;;6287273;28;20044;-69
2023/09/04 17:37:33;;;;;;;10.85;6.72;;;;;;;;;;6295670;28;20040;-69
2023/09/04 17:40:39;;;;;;;11.05;8.23;;;;;;;;;;6303141;28;20036;-70
2023/09/04 17:43:41;;;;;;;9.80;7.18;;;;;;;;;;6296768;28;20053;-68
2023/09/04 17:46:43;;;;;;;13.48;7.10;;;;;;;;;;6287999;28;20049;-69
2023/09/04 17:49:45;;;;;;;13.35;7.65;;;;;;;;;;6282692;28;20056;-69
2023/09/04 17:52:47;;;;;;;10.60;7.05;;;;;;;;;;6287111;28;20044;-69
2023/09/04 17:55:49;;;;;;;11.00;7.38;;;;;;;;;;6286439;28;20056;-67
2023/09/04 17:58:52;;;;;;;12.20;8.52;;;;;;;;;;6284043;28;20055;-66
2023/09/04 18:01:54;;;;;;;11.98;8.10;;;;;;;;;;6277138;28;20109;-67
2023/09/04 18:04:56;;;;;;;13.73;8.93;;;;;;;;;;6274655;28;20096;-68
2023/09/04 18:08:02;;;;;;;11.95;7.78;;;;;;;;;;6284552;28;20581;-70
2023/09/04 18:11:05;;;;;;;11.10;7.10;;;;;;;;;;6282674;28;20045;-69
2023/09/04 18:14:07;;;;;;;12.00;8.25;;;;;;;;;;6288281;28;20037;-70
2023/09/04 18:17:09;;;;;;;13.43;7.05;;;;;;;;;;6286114;28;20052;-70
2023/09/04 18:20:11;;;;;;;11.52;7.53;;;;;;;;;;6288232;28;20045;-70
2023/09/04 18:23:13;;;;;;;11.48;7.05;;;;;;;;;;6284799;28;20048;-70
2023/09/04 18:26:15;;;;;;;13.60;8.02;;;;;;;;;;6279136;28;20430;-69
2023/09/04 18:29:17;;;;;;;13.05;9.60;;;;;;;;;;6285176;28;20172;-70
2023/09/04 18:32:20;;;;;;;12.40;8.45;;;;;;;;;;6281457;28;20048;-70
2023/09/04 18:35:25;;;;;;;14.95;7.95;;;;;;;;;;6288478;28;20033;-69
2023/09/04 18:38:32;;;;;;;13.38;8.45;;;;;;;;;;6280457;28;20052;-70
2023/09/04 18:41:35;;;;;;;10.85;7.13;;;;;;;;;;6288582;28;20044;-70
2023/09/04 18:44:37;;;;;;;15.05;8.50;;;;;;;;;;6284667;28;20143;-70
2023/09/04 18:47:40;;;;;;;12.20;8.23;;;;;;;;;;6287656;28;20051;-70